2MD3 weather

Fly Away Farm Airport
Boyds, Maryland, United States

Public forecast

Using degrees Fahrenheit for public forecast. Weather courtesy of forecast.io.

Closest aviation weather report (METAR) to Fly Away Farm Airport

Closest report is Montgomery County Airpark, 9.1 nm (16.9 km) ESE. Retrieved 2020/06/01 00:56 UTC (56 minutes ago):

KGAI 010056Z AUTO 32003KT 10SM CLR 16/04 A3015 RMK AO2 SLP223 T01610039

Closest aviation forecast (TAF) to Fly Away Farm Airport

Closest forecast is Washington Dulles International Airport, 17.8 nm (33.0 km) SSW. Retrieved 2020-06-01 00:22 UTC (1 hour ago):

TAF KIAD 312320Z 0100/0206 34009KT P6SM FEW070 FM011400 31005KT P6SM FEW200 FM020200 23004KT P6SM FEW200